GEC113 EDDH-GMMN
Flight info
| Callsign | GEC113 |
|---|---|
| Flight time | N/A |
| Altitude | 38000 |
| Route | HABFU1G/33 HABFU Y348 MAWEQ DCT KENUM DCT IDOSA UN857 TOLVU/N0484F370 DCT RAPOR DCT AHVEC UN857 DISAK DCT ARKIP DCT ARNAV DCT LMG/N0479F390 DCT UVELI DCT OSMOB DCT ARVID T424 PPN N10 BAN N857 KORNO UN857 ABODA UR722 LAKAM |
| Aircraft | B742/H-SDFHIRWXY/Z |
Departure
| Time | 2026-04-23 17:53 |
|---|---|
| Airport | Hamburg Helmut Schmidt Airport (EDDH) |
Arrival
| Time | N/A |
|---|---|
| Airport | Mohammed V International Airport (GMMN) |
| Time | Latitude | Longitude | Altitude | Speed | Heading |
|---|---|---|---|---|---|
| 2026-04-23 17:04 | 53.62764 | 9.99153 | 47 ft | 0 kts | 63° |
| 2026-04-23 17:38 | 53.62763 | 9.99149 | 46 ft | 2 kts | 63° |
| 2026-04-23 17:38 | 53.62756 | 9.99127 | 46 ft | 2 kts | 63° |
| 2026-04-23 17:38 | 53.62749 | 9.99104 | 46 ft | 2 kts | 63° |
| 2026-04-23 17:39 | 53.62742 | 9.99082 | 46 ft | 2 kts | 66° |
| 2026-04-23 17:39 | 53.62739 | 9.99058 | 46 ft | 2 kts | 89° |
| 2026-04-23 17:39 | 53.62741 | 9.99033 | 46 ft | 2 kts | 108° |
| 2026-04-23 17:39 | 53.62748 | 9.99011 | 46 ft | 2 kts | 127° |
| 2026-04-23 17:40 | 53.62759 | 9.98994 | 46 ft | 2 kts | 146° |
| 2026-04-23 17:40 | 53.62765 | 9.98987 | 46 ft | 0 kts | 154° |
| 2026-04-23 17:46 | 53.62765 | 9.98988 | 46 ft | 0 kts | 154° |
| 2026-04-23 17:46 | 53.62759 | 9.98993 | 46 ft | 2 kts | 154° |
| 2026-04-23 17:47 | 53.62728 | 9.99018 | 46 ft | 7 kts | 154° |
| 2026-04-23 17:47 | 53.62674 | 9.99064 | 46 ft | 9 kts | 153° |
| 2026-04-23 17:47 | 53.62579 | 9.99156 | 47 ft | 6 kts | 114° |
| 2026-04-23 17:48 | 53.62578 | 9.99224 | 47 ft | 5 kts | 83° |
| 2026-04-23 17:48 | 53.62584 | 9.99288 | 47 ft | 5 kts | 79° |
| 2026-04-23 17:48 | 53.62592 | 9.99354 | 47 ft | 5 kts | 79° |
| 2026-04-23 17:48 | 53.62598 | 9.99416 | 47 ft | 4 kts | 79° |
| 2026-04-23 17:49 | 53.62604 | 9.99466 | 47 ft | 3 kts | 79° |
| 2026-04-23 17:49 | 53.62609 | 9.99506 | 48 ft | 3 kts | 79° |
| 2026-04-23 17:49 | 53.62613 | 9.99542 | 48 ft | 4 kts | 79° |
| 2026-04-23 17:49 | 53.62621 | 9.99608 | 48 ft | 6 kts | 79° |
| 2026-04-23 17:50 | 53.62628 | 9.99672 | 48 ft | 5 kts | 79° |
| 2026-04-23 17:50 | 53.62635 | 9.99732 | 48 ft | 2 kts | 79° |
| 2026-04-23 17:50 | 53.62642 | 9.99791 | 48 ft | 8 kts | 77° |
| 2026-04-23 17:51 | 53.62682 | 9.99886 | 48 ft | 10 kts | 9° |
| 2026-04-23 17:51 | 53.62721 | 9.99873 | 48 ft | 0 kts | 333° |
| 2026-04-23 17:52 | 53.62735 | 9.99861 | 48 ft | 12 kts | 332° |
| 2026-04-23 17:52 | 53.63081 | 9.99558 | 47 ft | 99 kts | 332° |
| 2026-04-23 17:53 | 53.64926 | 9.97948 | 916 ft | 169 kts | 333° |
| 2026-04-23 17:53 | 53.65922 | 9.97121 | 2120 ft | 158 kts | 334° |
| 2026-04-23 17:53 | 53.66974 | 9.96253 | 2539 ft | 193 kts | 334° |
| 2026-04-23 17:54 | 53.68278 | 9.95133 | 2914 ft | 223 kts | 333° |
| 2026-04-23 17:54 | 53.69663 | 9.93909 | 3202 ft | 221 kts | 333° |
| 2026-04-23 17:54 | 53.72648 | 9.91105 | 3619 ft | 273 kts | 324° |
| 2026-04-23 17:55 | 53.74561 | 9.85726 | 4572 ft | 260 kts | 280° |
| 2026-04-23 17:55 | 53.74186 | 9.82632 | 5325 ft | 284 kts | 249° |
| 2026-04-23 17:55 | 53.72882 | 9.80097 | 6170 ft | 305 kts | 219° |
| 2026-04-23 17:56 | 53.70981 | 9.78438 | 7094 ft | 313 kts | 207° |
| 2026-04-23 17:56 | 53.67055 | 9.75494 | 8916 ft | 309 kts | 209° |
| 2026-04-23 17:56 | 53.65099 | 9.73908 | 9343 ft | 316 kts | 210° |
| 2026-04-23 17:57 | 53.63128 | 9.72283 | 9702 ft | 313 kts | 210° |
| 2026-04-23 17:57 | 53.61193 | 9.70680 | 9894 ft | 316 kts | 210° |
| 2026-04-23 17:57 | 53.57267 | 9.67432 | 9962 ft | 312 kts | 210° |
| 2026-04-23 17:58 | 53.55330 | 9.65834 | 9965 ft | 313 kts | 210° |
| 2026-04-23 17:58 | 53.53394 | 9.64238 | 10136 ft | 310 kts | 210° |
| 2026-04-23 17:58 | 53.51419 | 9.62608 | 10229 ft | 315 kts | 210° |
| 2026-04-23 17:58 | 53.49484 | 9.61016 | 10409 ft | 310 kts | 210° |
| 2026-04-23 17:59 | 53.47489 | 9.59372 | 10673 ft | 335 kts | 209° |
| 2026-04-23 17:59 | 53.45324 | 9.57587 | 10920 ft | 362 kts | 209° |
| 2026-04-23 17:59 | 53.42997 | 9.55675 | 11310 ft | 380 kts | 208° |
| 2026-04-23 17:59 | 53.40573 | 9.53691 | 11796 ft | 394 kts | 208° |
| 2026-04-23 18:00 | 53.38135 | 9.51701 | 12836 ft | 394 kts | 208° |
| 2026-04-23 18:00 | 53.35680 | 9.49699 | 13757 ft | 396 kts | 208° |
| 2026-04-23 18:00 | 53.33207 | 9.47683 | 14610 ft | 400 kts | 208° |
| 2026-04-23 18:00 | 53.30701 | 9.45643 | 15429 ft | 404 kts | 208° |
| 2026-04-23 18:01 | 53.28192 | 9.43603 | 16220 ft | 408 kts | 207° |
| 2026-04-23 18:01 | 53.25614 | 9.41510 | 17011 ft | 411 kts | 207° |
| 2026-04-23 18:01 | 53.23044 | 9.39426 | 17771 ft | 415 kts | 207° |
| 2026-04-23 18:01 | 53.20465 | 9.37338 | 18512 ft | 419 kts | 207° |
| 2026-04-23 18:02 | 53.17829 | 9.35206 | 19269 ft | 422 kts | 207° |
| 2026-04-23 18:02 | 53.15183 | 9.33070 | 19998 ft | 426 kts | 206° |
| 2026-04-23 18:02 | 53.12538 | 9.30938 | 20728 ft | 429 kts | 206° |
| 2026-04-23 18:02 | 53.09849 | 9.28773 | 21444 ft | 432 kts | 206° |
| 2026-04-23 18:03 | 53.07145 | 9.26599 | 22120 ft | 436 kts | 206° |
| 2026-04-23 18:03 | 53.04410 | 9.24403 | 22782 ft | 440 kts | 206° |
| 2026-04-23 18:03 | 53.01685 | 9.22219 | 23457 ft | 443 kts | 206° |
| 2026-04-23 18:03 | 52.98885 | 9.19975 | 24104 ft | 446 kts | 206° |
| 2026-04-23 18:04 | 52.96124 | 9.17707 | 24700 ft | 450 kts | 207° |
| 2026-04-23 18:04 | 52.93351 | 9.15356 | 25324 ft | 453 kts | 207° |
| 2026-04-23 18:04 | 52.90536 | 9.12924 | 25890 ft | 457 kts | 207° |
| 2026-04-23 18:04 | 52.87683 | 9.10517 | 26415 ft | 461 kts | 207° |
| 2026-04-23 18:05 | 52.84837 | 9.08136 | 26947 ft | 465 kts | 207° |
| 2026-04-23 18:05 | 52.81932 | 9.05681 | 27467 ft | 468 kts | 207° |
| 2026-04-23 18:05 | 52.79019 | 9.03191 | 27967 ft | 471 kts | 207° |
| 2026-04-23 18:05 | 52.76119 | 9.00693 | 28422 ft | 474 kts | 207° |
| 2026-04-23 18:06 | 52.73192 | 8.98162 | 28886 ft | 477 kts | 207° |
| 2026-04-23 18:06 | 52.70246 | 8.95611 | 29324 ft | 480 kts | 207° |
| 2026-04-23 18:06 | 52.67273 | 8.93035 | 29727 ft | 484 kts | 207° |
| 2026-04-23 18:06 | 52.64315 | 8.90474 | 30102 ft | 488 kts | 207° |
| 2026-04-23 18:07 | 52.61295 | 8.87862 | 30267 ft | 493 kts | 207° |
| 2026-04-23 18:07 | 52.55206 | 8.82606 | 30297 ft | 493 kts | 207° |
| 2026-04-23 18:08 | 52.49147 | 8.77393 | 30300 ft | 493 kts | 207° |
| 2026-04-23 18:08 | 52.43116 | 8.72221 | 30301 ft | 491 kts | 206° |
| 2026-04-23 18:09 | 52.37088 | 8.67069 | 30369 ft | 490 kts | 206° |
| 2026-04-23 18:09 | 52.34076 | 8.64500 | 30526 ft | 492 kts | 206° |
| 2026-04-23 18:09 | 52.31062 | 8.61920 | 31063 ft | 491 kts | 208° |
| 2026-04-23 18:09 | 52.28159 | 8.58936 | 31750 ft | 488 kts | 215° |
| 2026-04-23 18:10 | 52.25542 | 8.55574 | 32363 ft | 487 kts | 219° |
| 2026-04-23 18:10 | 52.23016 | 8.51905 | 32941 ft | 486 kts | 222° |
| 2026-04-23 18:10 | 52.20551 | 8.48105 | 33552 ft | 485 kts | 223° |
| 2026-04-23 18:10 | 52.18157 | 8.44329 | 34165 ft | 483 kts | 223° |
| 2026-04-23 18:11 | 52.15746 | 8.40508 | 34847 ft | 481 kts | 223° |
| 2026-04-23 18:11 | 52.13382 | 8.36766 | 35553 ft | 479 kts | 223° |
| 2026-04-23 18:11 | 52.10978 | 8.32978 | 36229 ft | 477 kts | 222° |
| 2026-04-23 18:11 | 52.08604 | 8.29248 | 36833 ft | 476 kts | 222° |
| 2026-04-23 18:12 | 52.06250 | 8.25563 | 37389 ft | 475 kts | 222° |
| 2026-04-23 18:12 | 52.03873 | 8.21849 | 37851 ft | 475 kts | 222° |
| 2026-04-23 18:12 | 52.01496 | 8.18142 | 38220 ft | 477 kts | 222° |
| 2026-04-23 18:13 | 51.96664 | 8.10629 | 38312 ft | 492 kts | 222° |
| 2026-04-23 18:13 | 51.91677 | 8.02895 | 38311 ft | 496 kts | 222° |
| 2026-04-23 18:14 | 51.86734 | 7.95251 | 38307 ft | 493 kts | 222° |
| 2026-04-23 18:14 | 51.81806 | 7.87656 | 38314 ft | 494 kts | 222° |
| 2026-04-23 18:15 | 51.76821 | 7.79999 | 38313 ft | 492 kts | 222° |
| 2026-04-23 18:15 | 51.71862 | 7.72407 | 38312 ft | 493 kts | 222° |
| 2026-04-23 18:16 | 51.66925 | 7.64873 | 38321 ft | 492 kts | 222° |
| 2026-04-23 18:16 | 51.61945 | 7.57295 | 38315 ft | 492 kts | 222° |
| 2026-04-23 18:17 | 51.54529 | 7.46056 | 38314 ft | 492 kts | 221° |
| 2026-04-23 18:17 | 51.49558 | 7.38553 | 38313 ft | 492 kts | 221° |
| 2026-04-23 18:18 | 51.44580 | 7.31062 | 38314 ft | 492 kts | 221° |
| 2026-04-23 18:18 | 51.39586 | 7.23571 | 38309 ft | 490 kts | 221° |
| 2026-04-23 18:19 | 51.34614 | 7.16136 | 38304 ft | 492 kts | 221° |
| 2026-04-23 18:19 | 51.29640 | 7.08721 | 38305 ft | 490 kts | 221° |
| 2026-04-23 18:20 | 51.24676 | 7.01344 | 38310 ft | 490 kts | 221° |
| 2026-04-23 18:20 | 51.19642 | 6.93887 | 38320 ft | 492 kts | 220° |
| 2026-04-23 18:21 | 51.14605 | 6.86447 | 38321 ft | 491 kts | 220° |
| 2026-04-23 18:21 | 51.09631 | 6.79123 | 38328 ft | 490 kts | 220° |
| 2026-04-23 18:22 | 51.04656 | 6.71820 | 38328 ft | 490 kts | 220° |